Wichita, Kansas
Current Conditions -  °F | °C
As of 5:58 PM on Sunday 25 Jan 2015 (Local Time) from KIAB Reporting Station
Clear Clear  
Wind Chill: 39°   Ceiling: Unl
Heat Index: 45°   Visibility: 10mi
Dew Point: 31°   Wind: 10mph
Humidity: 57%   Direction: 10°N
Pressure: 30.1"   Gusts: 23mph
Location:  37.69°N, 97.33°W
Report Text: KIAB 252358Z AUTO 01009G20KT 10SM CLR 07/M01 A3010 RMK AO2 SLP199 T00711008 10104 20071 52028 $
Loading
Personal Weather Stations






























Interactive Weather Map New forecast layout! Learn more

10-Day Weather Forecast

Advertisements
Track Severe Weather on mobile